createdAt,value
2023-06-09T00:01:36.860Z,76.40
2023-06-09T00:04:05.331Z,76.08
2023-06-09T00:06:34.329Z,75.99
2023-06-09T00:09:02.629Z,76.10
2023-06-09T00:11:32.295Z,76.25
2023-06-09T00:14:01.681Z,75.71
2023-06-09T00:16:29.990Z,76.14
2023-06-09T00:19:02.960Z,76.57
2023-06-09T00:21:31.645Z,76.54
2023-06-09T00:24:00.078Z,76.44
2023-06-09T00:26:28.223Z,76.43
2023-06-09T00:28:57.868Z,76.52
2023-06-09T00:31:27.663Z,76.59
2023-06-09T00:33:56.526Z,76.55
2023-06-09T00:36:24.652Z,76.74
2023-06-09T00:38:52.823Z,77.15
2023-06-09T00:41:20.962Z,77.49
2023-06-09T00:43:49.832Z,77.25
2023-06-09T00:46:19.622Z,77.64
2023-06-09T00:48:47.871Z,77.66
2023-06-09T00:51:16.361Z,77.75
2023-06-09T00:53:45.089Z,77.50
2023-06-09T00:56:13.529Z,77.31
2023-06-09T00:58:41.903Z,77.57
2023-06-09T01:01:11.323Z,77.71
2023-06-09T01:03:42.163Z,77.80
2023-06-09T01:06:28.177Z,78.68
2023-06-09T01:09:00.611Z,78.12
2023-06-09T01:11:35.474Z,78.05
2023-06-09T01:14:11.196Z,77.94
2023-06-09T01:16:45.454Z,78.11
2023-06-09T01:19:32.574Z,78.59
2023-06-09T01:22:04.855Z,78.38
2023-06-09T01:24:47.253Z,78.28
2023-06-09T01:27:19.434Z,78.12
2023-06-09T01:29:49.104Z,77.82
2023-06-09T01:32:20.343Z,77.68
2023-06-09T01:34:50.043Z,77.59
2023-06-09T01:37:18.297Z,77.27
2023-06-09T01:39:48.385Z,77.58
2023-06-09T01:42:18.127Z,77.71
2023-06-09T01:44:46.177Z,77.13
2023-06-09T01:47:16.361Z,77.03
2023-06-09T01:49:50.470Z,77.41
2023-06-09T01:52:23.379Z,76.66
2023-06-09T01:54:56.395Z,76.51
2023-06-09T01:57:32.468Z,76.80
2023-06-09T02:00:04.938Z,76.61
2023-06-09T02:02:43.810Z,76.88
2023-06-09T02:05:15.106Z,76.68
2023-06-09T02:07:45.455Z,76.71
2023-06-09T02:10:14.640Z,76.56
2023-06-09T02:12:44.338Z,76.55
2023-06-09T02:15:12.675Z,76.79
2023-06-09T02:17:41.718Z,76.54
2023-06-09T02:20:12.346Z,76.20
2023-06-09T02:22:40.654Z,76.48
2023-06-09T02:25:10.261Z,77.05
2023-06-09T02:27:39.346Z,76.97
2023-06-09T02:30:09.938Z,76.89
2023-06-09T02:32:38.600Z,76.68
2023-06-09T02:35:07.991Z,77.14
2023-06-09T02:37:37.272Z,76.74
2023-06-09T02:40:07.862Z,77.04
2023-06-09T02:42:36.009Z,77.01
2023-06-09T02:45:04.875Z,77.10
2023-06-09T02:47:34.651Z,77.35
2023-06-09T02:50:02.861Z,76.91
2023-06-09T02:52:32.721Z,77.38
2023-06-09T02:55:01.991Z,77.44
2023-06-09T02:57:30.613Z,77.01
2023-06-09T02:59:59.736Z,77.10
2023-06-09T03:02:29.214Z,76.68
2023-06-09T03:04:59.338Z,77.24
2023-06-09T03:07:27.826Z,76.92
2023-06-09T03:09:55.965Z,76.57
2023-06-09T03:12:24.217Z,76.90
2023-06-09T03:14:52.946Z,77.29
2023-06-09T03:17:21.562Z,77.28
2023-06-09T03:19:50.022Z,76.71
2023-06-09T03:22:19.607Z,76.71
2023-06-09T03:24:47.834Z,76.98
2023-06-09T03:27:16.526Z,77.94
2023-06-09T03:29:44.746Z,77.66
2023-06-09T03:32:13.570Z,77.35
2023-06-09T03:34:42.644Z,77.48
2023-06-09T03:37:13.796Z,77.51
2023-06-09T03:39:43.487Z,77.53
2023-06-09T03:42:13.661Z,77.22
2023-06-09T03:44:41.803Z,77.70
2023-06-09T03:47:10.945Z,77.63
2023-06-09T03:49:40.486Z,77.89
2023-06-09T03:52:08.814Z,77.80
2023-06-09T03:54:39.302Z,77.62
2023-06-09T03:57:10.290Z,77.60
2023-06-09T03:59:38.605Z,77.59
2023-06-09T04:02:07.050Z,77.54
2023-06-09T04:04:35.408Z,78.29
2023-06-09T04:07:06.127Z,78.14
2023-06-09T04:09:34.508Z,78.63
2023-06-09T04:12:02.930Z,78.08
2023-06-09T04:14:33.211Z,77.54
2023-06-09T04:17:01.623Z,77.75
2023-06-09T04:19:29.880Z,78.27
2023-06-09T04:21:58.359Z,79.31
2023-06-09T04:24:26.565Z,78.39
2023-06-09T04:26:55.220Z,78.06
2023-06-09T04:29:24.949Z,77.86
2023-06-09T04:32:00.589Z,77.65
2023-06-09T04:34:39.800Z,77.21
2023-06-09T04:37:10.458Z,77.18
2023-06-09T04:39:38.651Z,77.14
2023-06-09T04:42:09.249Z,76.41
2023-06-09T04:44:37.638Z,77.25
2023-06-09T04:47:08.516Z,76.31
2023-06-09T04:49:38.742Z,75.98
2023-06-09T04:52:08.841Z,76.39
2023-06-09T04:54:37.857Z,76.77
2023-06-09T04:57:10.844Z,76.89
2023-06-09T04:59:40.279Z,76.04
2023-06-09T05:02:10.310Z,75.78
2023-06-09T05:04:38.672Z,75.26
2023-06-09T05:07:07.858Z,75.25
2023-06-09T05:09:37.043Z,76.40
2023-06-09T05:12:06.002Z,75.60
2023-06-09T05:14:34.225Z,74.90
2023-06-09T05:17:04.918Z,75.12
2023-06-09T05:19:34.502Z,74.86
2023-06-09T05:22:02.642Z,74.67
2023-06-09T05:24:31.061Z,74.68
2023-06-09T05:26:59.344Z,74.73
2023-06-09T05:29:27.908Z,74.36
2023-06-09T05:31:56.131Z,74.17
2023-06-09T05:34:24.980Z,73.81
2023-06-09T05:36:54.896Z,73.43
2023-06-09T05:39:25.938Z,73.80
2023-06-09T05:41:54.213Z,73.06
2023-06-09T05:44:22.418Z,73.55
2023-06-09T05:46:50.637Z,72.67
2023-06-09T05:49:18.799Z,72.77
2023-06-09T05:51:46.902Z,74.78
2023-06-09T05:54:16.407Z,73.67
2023-06-09T05:56:46.151Z,73.34
2023-06-09T05:59:15.204Z,72.16
2023-06-09T06:01:44.152Z,71.15
2023-06-09T06:04:12.425Z,71.10
2023-06-09T06:06:40.712Z,71.37
2023-06-09T06:09:10.287Z,71.09
2023-06-09T06:11:39.900Z,70.66
2023-06-09T06:14:07.999Z,69.66
2023-06-09T06:16:36.194Z,68.86
2023-06-09T06:19:04.393Z,69.09
2023-06-09T06:21:32.428Z,68.63
2023-06-09T06:24:00.879Z,68.55
2023-06-09T06:26:29.011Z,69.14
2023-06-09T06:28:58.552Z,67.96
2023-06-09T06:31:29.474Z,67.65
2023-06-09T06:33:58.032Z,68.11
2023-06-09T06:36:26.500Z,68.65
2023-06-09T06:38:54.735Z,68.55
2023-06-09T06:41:23.064Z,68.14
2023-06-09T06:43:52.470Z,67.63
2023-06-09T06:46:22.072Z,67.78
2023-06-09T06:48:50.236Z,67.31
2023-06-09T06:51:18.674Z,66.91
2023-06-09T06:53:46.825Z,67.38
2023-06-09T06:56:15.016Z,66.98
2023-06-09T06:58:43.241Z,66.60
2023-06-09T07:01:11.963Z,66.19
2023-06-09T07:03:41.622Z,65.98
2023-06-09T07:06:10.757Z,65.48
2023-06-09T07:08:38.976Z,65.21
2023-06-09T07:11:07.018Z,65.68
2023-06-09T07:13:35.113Z,65.27
2023-06-09T07:16:03.531Z,64.71
2023-06-09T07:18:31.946Z,64.98
2023-06-09T07:21:04.131Z,64.31
2023-06-09T07:23:33.617Z,63.30
2023-06-09T07:26:01.783Z,63.24
2023-06-09T07:28:30.183Z,63.19
2023-06-09T07:30:58.348Z,62.27
2023-06-09T07:33:32.471Z,61.53
2023-06-09T07:36:02.262Z,62.06
2023-06-09T07:38:30.438Z,61.51
2023-06-09T07:40:58.567Z,60.42
2023-06-09T07:43:26.928Z,60.75
2023-06-09T07:45:55.048Z,60.58
2023-06-09T07:48:23.129Z,60.06
2023-06-09T07:51:00.949Z,60.11
2023-06-09T07:53:31.438Z,58.94
2023-06-09T07:56:01.050Z,58.52
2023-06-09T07:58:38.133Z,57.83
2023-06-09T08:01:06.348Z,58.77
2023-06-09T08:03:37.157Z,57.77
2023-06-09T08:06:05.772Z,56.55
2023-06-09T08:08:35.750Z,56.54
2023-06-09T08:11:03.957Z,56.57
2023-06-09T08:13:32.277Z,55.66
2023-06-09T08:16:00.367Z,55.57
2023-06-09T08:18:28.592Z,56.11
2023-06-09T08:20:56.679Z,54.83
2023-06-09T08:23:24.740Z,55.07
2023-06-09T08:25:54.266Z,55.36
2023-06-09T08:28:22.536Z,54.93
2023-06-09T08:30:50.675Z,54.74
2023-06-09T08:33:18.920Z,54.98
2023-06-09T08:35:47.212Z,55.44
2023-06-09T08:38:15.342Z,54.49
2023-06-09T08:40:43.572Z,54.07
2023-06-09T08:43:13.007Z,54.50
2023-06-09T08:45:45.680Z,54.61
2023-06-09T08:48:19.631Z,54.44
2023-06-09T08:50:48.116Z,53.77
2023-06-09T08:53:16.714Z,54.42
2023-06-09T08:55:46.289Z,54.35
2023-06-09T08:58:16.180Z,53.43
2023-06-09T09:00:44.350Z,53.51
2023-06-09T09:03:12.781Z,53.22
2023-06-09T09:05:41.028Z,52.95
2023-06-09T09:08:09.992Z,52.83
2023-06-09T09:10:39.847Z,52.73
2023-06-09T09:13:10.057Z,53.57
2023-06-09T09:15:48.182Z,53.52
2023-06-09T09:18:17.501Z,53.98
2023-06-09T09:20:45.963Z,53.07
2023-06-09T09:23:14.329Z,53.31
2023-06-09T09:25:45.195Z,53.07
2023-06-09T09:28:14.985Z,53.12
2023-06-09T09:30:46.453Z,53.13
2023-06-09T09:33:16.678Z,53.72
2023-06-09T09:35:49.380Z,53.45
2023-06-09T09:38:19.214Z,53.21
2023-06-09T09:40:48.540Z,51.65
2023-06-09T09:43:18.109Z,52.02
2023-06-09T09:45:49.451Z,51.67
2023-06-09T09:48:21.080Z,51.79
2023-06-09T09:50:50.533Z,51.52
2023-06-09T09:53:18.802Z,51.22
2023-06-09T09:55:48.185Z,50.91
2023-06-09T09:58:17.564Z,49.98
2023-06-09T10:00:48.748Z,50.93
2023-06-09T10:03:18.627Z,50.74
2023-06-09T10:05:48.416Z,49.12
2023-06-09T10:08:22.507Z,50.36
2023-06-09T10:10:52.714Z,50.88
2023-06-09T10:13:23.454Z,51.95
2023-06-09T10:15:53.789Z,50.54
2023-06-09T10:18:22.732Z,50.75
2023-06-09T10:20:52.909Z,50.80
2023-06-09T10:23:21.786Z,49.65
2023-06-09T10:25:50.659Z,50.18
2023-06-09T10:28:20.006Z,48.64
2023-06-09T10:30:49.650Z,48.79
2023-06-09T10:33:24.324Z,48.98
2023-06-09T10:35:57.706Z,48.17
2023-06-09T10:38:29.737Z,48.19
2023-06-09T10:41:11.637Z,48.48
2023-06-09T10:44:00.718Z,48.77
2023-06-09T10:46:43.994Z,48.82
2023-06-09T10:49:40.397Z,47.76
2023-06-09T10:52:11.559Z,47.50
2023-06-09T10:54:39.900Z,49.04
2023-06-09T10:57:28.858Z,47.82
2023-06-09T10:59:58.872Z,47.19
2023-06-09T11:02:27.757Z,47.50
2023-06-09T11:04:56.386Z,48.13
2023-06-09T11:07:26.569Z,47.58
2023-06-09T11:10:37.495Z,47.60
2023-06-09T11:13:40.005Z,46.87
2023-06-09T11:16:10.309Z,47.18
2023-06-09T11:18:40.015Z,46.99
2023-06-09T11:21:22.320Z,46.32
2023-06-09T11:24:04.924Z,46.27
2023-06-09T11:26:35.050Z,47.15
2023-06-09T11:29:05.370Z,47.93
2023-06-09T11:31:51.490Z,47.27
2023-06-09T11:34:49.371Z,48.08
2023-06-09T11:37:19.570Z,47.49
2023-06-09T11:39:47.911Z,47.85
2023-06-09T11:42:18.415Z,48.55
2023-06-09T11:44:46.857Z,50.38
2023-06-09T11:47:30.572Z,50.14
2023-06-09T11:50:03.500Z,50.25
2023-06-09T11:52:31.899Z,50.02
2023-06-09T11:55:03.596Z,49.73
2023-06-09T11:57:32.658Z,48.80
2023-06-09T12:00:02.712Z,50.19
2023-06-09T12:02:42.816Z,49.25
2023-06-09T12:05:13.178Z,50.26
2023-06-09T12:07:44.663Z,48.95
2023-06-09T12:12:45.749Z,47.94
2023-06-09T12:15:15.151Z,47.53
2023-06-09T12:17:45.418Z,47.47
2023-06-09T12:20:26.182Z,47.19
2023-06-09T12:22:55.649Z,48.22
2023-06-09T12:25:26.558Z,48.27
2023-06-09T12:27:55.689Z,47.84
2023-06-09T12:30:40.782Z,46.79
2023-06-09T12:33:12.074Z,48.03
2023-06-09T12:35:41.828Z,47.03
2023-06-09T12:38:14.942Z,47.50
2023-06-09T12:40:47.486Z,47.68
2023-06-09T12:43:15.852Z,48.07
2023-06-09T12:45:44.737Z,48.17
2023-06-09T12:48:14.408Z,48.18
2023-06-09T12:50:42.949Z,49.98
2023-06-09T12:53:11.833Z,49.44
2023-06-09T12:55:40.846Z,49.97
2023-06-09T12:58:12.255Z,50.53
2023-06-09T13:00:41.413Z,51.33
2023-06-09T13:03:11.509Z,51.33
2023-06-09T13:05:41.229Z,50.29
2023-06-09T13:08:09.471Z,51.41
2023-06-09T13:10:37.744Z,51.79
2023-06-09T13:13:06.067Z,52.90
2023-06-09T13:15:34.314Z,53.05
2023-06-09T13:18:02.849Z,52.35
2023-06-09T13:20:31.128Z,53.07
2023-06-09T13:23:00.679Z,54.28
2023-06-09T13:25:28.879Z,53.80
2023-06-09T13:27:56.966Z,54.12
2023-06-09T13:30:25.193Z,54.61
2023-06-09T13:32:53.436Z,53.69
2023-06-09T13:35:23.021Z,52.96
2023-06-09T13:37:51.221Z,52.67
2023-06-09T13:40:21.247Z,51.39
2023-06-09T13:42:53.812Z,52.13
2023-06-09T13:45:22.458Z,52.77
2023-06-09T13:47:51.017Z,52.10
2023-06-09T13:50:19.273Z,51.89
2023-06-09T13:52:47.671Z,52.73
2023-06-09T13:55:15.884Z,51.96
2023-06-09T13:57:46.019Z,52.06
2023-06-09T14:00:15.602Z,52.61
2023-06-09T14:02:44.439Z,53.02
2023-06-09T14:05:14.936Z,52.81
2023-06-09T14:07:46.612Z,52.68
2023-06-09T14:10:16.974Z,51.79
2023-06-09T14:12:49.653Z,51.11
2023-06-09T14:15:27.167Z,51.21
2023-06-09T14:17:57.302Z,50.91
2023-06-09T14:20:27.192Z,51.28
2023-06-09T14:22:57.114Z,52.12
2023-06-09T14:25:27.345Z,51.61
2023-06-09T14:27:57.702Z,50.99
2023-06-09T14:30:27.979Z,51.88
2023-06-09T14:32:56.850Z,51.55
2023-06-09T14:35:27.245Z,51.20
2023-06-09T14:37:57.339Z,51.03
2023-06-09T14:40:27.265Z,50.76
2023-06-09T14:42:57.222Z,51.11
2023-06-09T14:45:26.843Z,51.31
2023-06-09T14:47:56.767Z,51.97
2023-06-09T14:50:26.810Z,51.24
2023-06-09T14:52:59.830Z,50.60
2023-06-09T14:55:29.789Z,50.43
2023-06-09T14:58:00.962Z,50.25
2023-06-09T15:00:29.667Z,53.61
2023-06-09T15:02:59.559Z,56.19
2023-06-09T15:05:29.591Z,55.18
2023-06-09T15:07:59.775Z,56.25
2023-06-09T15:10:28.950Z,62.09
2023-06-09T15:12:57.041Z,60.31
2023-06-09T15:15:29.432Z,60.23
2023-06-09T15:17:59.125Z,61.93
2023-06-09T15:20:30.157Z,63.41
2023-06-09T15:22:59.871Z,63.55
2023-06-09T15:25:30.404Z,62.78
2023-06-09T15:28:01.348Z,62.57
2023-06-09T15:30:32.247Z,66.83
2023-06-09T15:33:04.271Z,66.23
2023-06-09T15:35:35.951Z,65.99
2023-06-09T15:38:06.081Z,65.43
2023-06-09T15:40:35.781Z,64.54
2023-06-09T15:43:05.233Z,66.31
2023-06-09T15:45:40.168Z,65.19
2023-06-09T15:48:08.476Z,64.13
2023-06-09T15:50:37.121Z,62.85
2023-06-09T15:53:05.611Z,62.76
2023-06-09T15:55:34.743Z,62.32
2023-06-09T15:58:05.245Z,62.40
2023-06-09T16:00:33.889Z,64.27
2023-06-09T16:03:06.856Z,65.80
2023-06-09T16:05:36.328Z,64.15
2023-06-09T16:08:05.202Z,64.03
2023-06-09T16:10:33.670Z,63.60
2023-06-09T16:13:02.830Z,63.54
2023-06-09T16:15:32.562Z,64.15
2023-06-09T16:18:03.973Z,63.35
2023-06-09T16:20:36.056Z,63.46
2023-06-09T16:23:06.154Z,63.50
2023-06-09T16:25:34.478Z,64.18
2023-06-09T16:28:03.902Z,66.52
2023-06-09T16:30:32.366Z,66.32
2023-06-09T16:33:01.680Z,70.84
2023-06-09T16:35:29.946Z,67.62
2023-06-09T16:37:59.361Z,68.81
2023-06-09T16:40:29.465Z,70.39
2023-06-09T16:42:59.879Z,72.37
2023-06-09T16:45:28.583Z,76.79
2023-06-09T16:47:57.445Z,76.52
2023-06-09T16:50:25.959Z,78.41
2023-06-09T16:52:55.504Z,77.82
2023-06-09T16:55:26.088Z,80.30
2023-06-09T16:57:54.394Z,81.88
2023-06-09T17:00:23.523Z,79.83
2023-06-09T17:02:55.447Z,80.97
2023-06-09T17:05:24.267Z,75.48
2023-06-09T17:07:52.461Z,73.24
2023-06-09T17:10:20.652Z,72.99
2023-06-09T17:12:50.167Z,74.50
2023-06-09T17:15:18.348Z,74.63
2023-06-09T17:17:46.705Z,73.60
2023-06-09T17:20:14.946Z,77.13
2023-06-09T17:22:43.708Z,74.73
2023-06-09T17:25:12.137Z,73.32
2023-06-09T17:27:40.521Z,74.33
2023-06-09T17:30:14.392Z,76.32
2023-06-09T17:32:43.570Z,79.34
2023-06-09T17:35:12.272Z,79.44
2023-06-09T17:37:40.870Z,77.80
2023-06-09T17:40:11.132Z,77.11
2023-06-09T17:42:39.607Z,74.35
2023-06-09T17:45:11.186Z,72.89
2023-06-09T17:47:40.021Z,72.01
2023-06-09T17:50:10.185Z,71.46
2023-06-09T17:52:38.315Z,71.26
2023-06-09T17:55:07.348Z,72.31
2023-06-09T17:57:35.684Z,71.58
2023-06-09T18:00:05.887Z,72.05
2023-06-09T18:02:39.179Z,71.68
2023-06-09T18:05:08.108Z,71.85
2023-06-09T18:07:36.350Z,71.25
2023-06-09T18:10:06.348Z,71.05
2023-06-09T18:12:34.789Z,70.91
2023-06-09T18:15:03.233Z,70.60
2023-06-09T18:17:32.635Z,70.03
2023-06-09T18:20:02.300Z,70.44
2023-06-09T18:22:32.679Z,71.03
2023-06-09T18:25:00.932Z,71.33
2023-06-09T18:27:29.034Z,71.19
2023-06-09T18:29:57.058Z,70.43
2023-06-09T18:32:25.228Z,70.31
2023-06-09T18:34:53.322Z,70.28
2023-06-09T18:37:22.884Z,70.74
2023-06-09T18:39:51.249Z,71.02
2023-06-09T18:42:19.427Z,70.09
2023-06-09T18:44:47.554Z,70.07
2023-06-09T18:47:16.024Z,70.19
2023-06-09T18:49:46.101Z,70.33
2023-06-09T18:52:14.615Z,69.96
2023-06-09T18:54:44.070Z,70.10
2023-06-09T18:57:12.271Z,70.05
2023-06-09T18:59:40.543Z,70.18
2023-06-09T19:02:09.270Z,70.21
2023-06-09T19:04:37.531Z,70.46
2023-06-09T19:07:06.013Z,69.86
2023-06-09T19:09:34.576Z,70.50
2023-06-09T19:12:04.149Z,70.68
2023-06-09T19:14:32.425Z,70.37
2023-06-09T19:17:00.607Z,70.60
2023-06-09T19:19:28.835Z,70.76
2023-06-09T19:21:56.981Z,71.28
2023-06-09T19:24:25.207Z,71.60
2023-06-09T19:26:53.270Z,71.50
2023-06-09T19:29:22.872Z,71.69
2023-06-09T19:31:51.320Z,72.11
2023-06-09T19:34:19.502Z,74.02
2023-06-09T19:36:47.556Z,73.02
2023-06-09T19:39:15.889Z,74.30
2023-06-09T19:41:44.030Z,73.56
2023-06-09T19:44:12.269Z,72.61
2023-06-09T19:46:41.977Z,72.16
2023-06-09T19:49:12.720Z,71.53
2023-06-09T19:51:41.140Z,71.59
2023-06-09T19:54:09.331Z,71.79
2023-06-09T19:56:46.092Z,73.26
2023-06-09T19:59:15.458Z,73.49
2023-06-09T20:01:45.783Z,72.51
2023-06-09T20:04:14.156Z,74.26
2023-06-09T20:06:43.647Z,72.46
2023-06-09T20:09:12.125Z,73.00
2023-06-09T20:11:40.801Z,72.49
2023-06-09T20:14:10.140Z,71.99
2023-06-09T20:16:39.475Z,72.61
2023-06-09T20:19:09.109Z,73.32
2023-06-09T20:21:37.518Z,73.01
2023-06-09T20:24:07.391Z,72.36
2023-06-09T20:26:35.990Z,72.33
2023-06-09T20:29:04.068Z,71.40
2023-06-09T20:31:32.385Z,71.57
2023-06-09T20:34:01.871Z,71.41
2023-06-09T20:36:33.578Z,71.76
2023-06-09T20:39:02.060Z,73.00
2023-06-09T20:41:30.119Z,73.56
2023-06-09T20:43:58.965Z,73.87
2023-06-09T20:46:27.257Z,73.68
2023-06-09T20:48:55.336Z,74.48
2023-06-09T20:51:23.590Z,75.62
2023-06-09T20:53:53.020Z,75.99
2023-06-09T20:56:21.658Z,75.88
2023-06-09T20:58:49.816Z,77.07
2023-06-09T21:01:18.141Z,74.64
2023-06-09T21:03:48.884Z,74.55
2023-06-09T21:06:21.472Z,73.78
2023-06-09T21:08:50.063Z,73.29
2023-06-09T21:11:20.232Z,73.42
2023-06-09T21:13:48.380Z,74.31
2023-06-09T21:16:16.971Z,74.54
2023-06-09T21:18:45.053Z,73.85
2023-06-09T21:21:13.323Z,73.21
2023-06-09T21:23:41.473Z,73.45
2023-06-09T21:26:09.769Z,73.20
2023-06-09T21:28:43.079Z,73.26
2023-06-09T21:31:12.316Z,72.73
2023-06-09T21:33:40.521Z,73.09
2023-06-09T21:36:09.540Z,73.97
2023-06-09T21:38:37.790Z,73.04
2023-06-09T21:41:06.041Z,73.28
2023-06-09T21:43:34.178Z,74.34
2023-06-09T21:46:03.749Z,76.25
2023-06-09T21:48:31.912Z,75.93
2023-06-09T21:51:00.142Z,77.18
2023-06-09T21:53:28.170Z,77.12
2023-06-09T21:55:56.342Z,78.00
2023-06-09T21:58:24.466Z,78.91
2023-06-09T22:00:52.768Z,80.65
2023-06-09T22:03:22.397Z,82.21
2023-06-09T22:05:50.812Z,82.37
2023-06-09T22:08:18.972Z,83.37
2023-06-09T22:10:47.349Z,84.86
2023-06-09T22:13:18.997Z,82.74
2023-06-09T22:15:47.381Z,82.41
2023-06-09T22:18:18.471Z,81.49
2023-06-09T22:20:48.148Z,82.78
2023-06-09T22:23:16.278Z,81.45
2023-06-09T22:25:44.312Z,81.96
2023-06-09T22:28:12.535Z,81.51
2023-06-09T22:30:40.790Z,81.71
2023-06-09T22:33:09.086Z,81.17
2023-06-09T22:35:37.197Z,80.50
2023-06-09T22:38:06.909Z,78.17
2023-06-09T22:40:35.517Z,77.02
2023-06-09T22:43:03.645Z,78.86
2023-06-09T22:45:31.661Z,77.71
2023-06-09T22:48:01.774Z,78.07
2023-06-09T22:50:30.276Z,79.99
2023-06-09T22:52:58.701Z,80.73
2023-06-09T22:55:28.184Z,79.89
2023-06-09T22:57:56.562Z,79.89
2023-06-09T23:00:24.758Z,83.03
2023-06-09T23:02:53.573Z,81.81
2023-06-09T23:05:28.781Z,81.19
2023-06-09T23:07:57.358Z,79.78
2023-06-09T23:10:25.731Z,80.41
2023-06-09T23:12:55.231Z,81.14
2023-06-09T23:15:24.123Z,79.89
2023-06-09T23:17:53.729Z,78.31
2023-06-09T23:20:23.049Z,77.97
2023-06-09T23:22:52.893Z,77.06
2023-06-09T23:25:21.311Z,77.99
2023-06-09T23:27:49.480Z,77.64
2023-06-09T23:30:19.587Z,78.36
2023-06-09T23:32:47.888Z,78.73
2023-06-09T23:35:18.256Z,79.46
2023-06-09T23:37:53.722Z,79.70
2023-06-09T23:40:21.934Z,79.46
2023-06-09T23:42:50.030Z,77.77
2023-06-09T23:45:19.844Z,78.45
2023-06-09T23:47:48.271Z,78.59
2023-06-09T23:50:16.437Z,79.62
2023-06-09T23:52:44.608Z,81.28
2023-06-09T23:55:12.902Z,81.03
2023-06-09T23:57:42.386Z,83.64
